createdAt,value
2022-10-29T00:02:08.570Z,6.85
2022-10-29T00:04:34.842Z,6.88
2022-10-29T00:07:01.107Z,6.80
2022-10-29T00:09:27.357Z,7.55
2022-10-29T00:11:53.644Z,7.70
2022-10-29T00:14:19.927Z,7.63
2022-10-29T00:16:46.207Z,6.68
2022-10-29T00:19:12.460Z,7.55
2022-10-29T00:21:40.369Z,9.35
2022-10-29T00:24:06.914Z,8.40
2022-10-29T00:26:33.564Z,9.45
2022-10-29T00:28:59.898Z,7.82
2022-10-29T00:31:26.358Z,8.00
2022-10-29T00:33:55.683Z,7.30
2022-10-29T00:36:23.350Z,8.18
2022-10-29T00:38:50.040Z,7.20
2022-10-29T00:41:20.531Z,7.25
2022-10-29T00:43:48.086Z,7.07
2022-10-29T00:46:18.060Z,7.18
2022-10-29T00:48:46.314Z,7.13
2022-10-29T00:51:13.847Z,7.43
2022-10-29T00:53:43.216Z,7.90
2022-10-29T00:56:09.911Z,8.93
2022-10-29T00:58:36.186Z,11.13
2022-10-29T01:01:02.539Z,8.80
2022-10-29T01:03:28.788Z,8.63
2022-10-29T01:05:55.280Z,9.32
2022-10-29T01:08:22.011Z,7.55
2022-10-29T01:10:59.965Z,7.72
2022-10-29T01:13:36.415Z,7.63
2022-10-29T01:16:11.040Z,7.53
2022-10-29T01:19:00.468Z,7.88
2022-10-29T01:21:34.472Z,7.97
2022-10-29T01:24:00.670Z,7.55
2022-10-29T01:26:39.196Z,8.57
2022-10-29T01:29:17.551Z,7.63
2022-10-29T01:31:43.780Z,7.05
2022-10-29T01:34:16.112Z,6.05
2022-10-29T01:37:01.950Z,6.35
2022-10-29T01:39:31.199Z,6.47
2022-10-29T01:42:04.864Z,6.93
2022-10-29T01:44:40.124Z,6.93
2022-10-29T01:47:12.373Z,7.50
2022-10-29T01:49:40.062Z,6.22
2022-10-29T01:52:07.770Z,5.82
2022-10-29T01:54:34.204Z,6.78
2022-10-29T01:57:00.841Z,6.75
2022-10-29T01:59:35.908Z,6.90
2022-10-29T02:02:18.288Z,6.78
2022-10-29T02:04:50.224Z,6.55
2022-10-29T02:07:19.268Z,5.97
2022-10-29T02:09:54.692Z,6.55
2022-10-29T02:12:27.180Z,7.50
2022-10-29T02:15:22.800Z,7.03
2022-10-29T02:17:49.200Z,7.28
2022-10-29T02:20:16.128Z,7.38
2022-10-29T02:25:09.291Z,8.82
2022-10-29T02:30:01.830Z,6.78
2022-10-29T02:32:28.132Z,6.95
2022-10-29T02:34:54.515Z,7.50
2022-10-29T02:37:20.777Z,6.90
2022-10-29T02:39:47.033Z,7.32
2022-10-29T02:42:13.348Z,7.75
2022-10-29T02:44:39.634Z,6.32
2022-10-29T02:47:05.887Z,6.50
2022-10-29T02:49:32.164Z,6.80
2022-10-29T02:51:58.465Z,6.85
2022-10-29T02:54:24.718Z,6.25
2022-10-29T02:56:50.991Z,7.00
2022-10-29T02:59:17.237Z,6.72
2022-10-29T03:01:43.631Z,6.38
2022-10-29T03:04:10.629Z,7.18
2022-10-29T03:06:37.232Z,6.20
2022-10-29T03:09:03.864Z,6.30
2022-10-29T03:11:30.319Z,5.60
2022-10-29T03:13:56.639Z,7.03
2022-10-29T03:16:22.930Z,6.63
2022-10-29T03:18:49.251Z,6.35
2022-10-29T03:21:15.455Z,6.57
2022-10-29T03:23:41.694Z,6.10
2022-10-29T03:26:08.892Z,6.30
2022-10-29T03:28:35.169Z,6.60
2022-10-29T03:31:01.510Z,6.43
2022-10-29T03:33:28.200Z,6.45
2022-10-29T03:35:58.370Z,7.03
2022-10-29T03:38:24.752Z,7.18
2022-10-29T03:40:51.090Z,6.63
2022-10-29T03:43:17.816Z,6.45
2022-10-29T03:45:44.055Z,6.13
2022-10-29T03:48:10.311Z,6.35
2022-10-29T03:50:36.520Z,6.50
2022-10-29T03:53:02.743Z,5.80
2022-10-29T03:55:29.182Z,7.22
2022-10-29T03:57:56.028Z,6.82
2022-10-29T04:02:48.672Z,6.63
2022-10-29T04:05:14.976Z,6.68
2022-10-29T04:07:41.199Z,8.18
2022-10-29T04:10:07.567Z,6.57
2022-10-29T04:12:33.792Z,7.70
2022-10-29T04:15:00.043Z,7.25
2022-10-29T04:17:26.277Z,6.57
2022-10-29T04:19:52.505Z,6.95
2022-10-29T04:30:39.817Z,6.22
2022-10-29T04:33:06.053Z,7.35
2022-10-29T04:35:32.283Z,6.15
2022-10-29T04:37:58.526Z,7.28
2022-10-29T04:40:25.030Z,6.65
2022-10-29T04:42:51.346Z,8.10
2022-10-29T04:45:17.733Z,7.65
2022-10-29T04:47:43.983Z,8.05
2022-10-29T04:50:10.280Z,6.20
2022-10-29T04:52:36.498Z,6.38
2022-10-29T04:55:02.793Z,6.72
2022-10-29T04:57:29.029Z,6.40
2022-10-29T04:59:55.250Z,6.28
2022-10-29T05:02:21.471Z,7.05
2022-10-29T05:04:47.726Z,6.32
2022-10-29T05:07:13.938Z,6.18
2022-10-29T05:09:40.173Z,5.82
2022-10-29T05:12:07.068Z,7.72
2022-10-29T05:14:33.295Z,6.97
2022-10-29T05:16:59.601Z,6.38
2022-10-29T05:19:25.858Z,6.63
2022-10-29T05:21:52.095Z,7.05
2022-10-29T05:24:18.319Z,7.18
2022-10-29T05:26:44.557Z,6.50
2022-10-29T05:29:10.787Z,6.95
2022-10-29T05:31:37.020Z,7.55
2022-10-29T05:34:03.268Z,6.65
2022-10-29T05:36:29.502Z,6.45
2022-10-29T05:38:55.807Z,6.45
2022-10-29T05:41:22.151Z,7.35
2022-10-29T05:43:49.120Z,8.27
2022-10-29T05:48:42.840Z,7.00
2022-10-29T05:51:09.714Z,8.80
2022-10-29T05:53:36.398Z,8.40
2022-10-29T05:56:02.620Z,7.25
2022-10-29T05:58:28.854Z,7.30
2022-10-29T06:00:55.077Z,7.45
2022-10-29T06:03:22.258Z,7.70
2022-10-29T06:05:49.149Z,7.18
2022-10-29T06:08:15.516Z,6.88
2022-10-29T06:10:41.802Z,6.78
2022-10-29T06:13:16.126Z,6.88
2022-10-29T06:15:42.415Z,5.43
2022-10-29T06:18:08.766Z,6.50
2022-10-29T06:20:35.309Z,7.18
2022-10-29T06:23:01.555Z,6.70
2022-10-29T06:25:28.004Z,5.85
2022-10-29T06:28:01.374Z,5.88
2022-10-29T06:30:27.993Z,6.60
2022-10-29T06:32:54.498Z,6.05
2022-10-29T06:35:21.009Z,7.78
2022-10-29T06:37:47.387Z,7.95
2022-10-29T06:40:13.725Z,7.57
2022-10-29T06:42:39.975Z,8.25
2022-10-29T06:45:06.581Z,6.53
2022-10-29T06:47:38.265Z,7.25
2022-10-29T06:50:04.696Z,7.18
2022-10-29T06:52:31.125Z,8.70
2022-10-29T06:54:57.442Z,15.27
2022-10-29T06:57:24.791Z,7.18
2022-10-29T06:59:51.042Z,6.72
2022-10-29T07:02:18.737Z,7.88
2022-10-29T07:04:44.974Z,6.68
2022-10-29T07:07:11.420Z,7.78
2022-10-29T07:09:37.784Z,7.88
2022-10-29T07:12:04.022Z,7.07
2022-10-29T07:14:30.297Z,6.50
2022-10-29T07:16:56.544Z,7.18
2022-10-29T07:19:22.805Z,6.78
2022-10-29T07:21:49.061Z,7.47
2022-10-29T07:24:17.727Z,6.90
2022-10-29T07:26:44.150Z,5.97
2022-10-29T07:29:10.701Z,11.57
2022-10-29T07:31:37.158Z,14.93
2022-10-29T07:34:03.450Z,9.27
2022-10-29T07:36:30.145Z,8.77
2022-10-29T07:38:56.429Z,8.77
2022-10-29T07:41:22.704Z,9.25
2022-10-29T07:43:49.053Z,7.70
2022-10-29T07:46:15.335Z,7.30
2022-10-29T07:48:41.695Z,7.57
2022-10-29T07:51:07.946Z,6.75
2022-10-29T07:53:34.220Z,6.35
2022-10-29T07:56:00.503Z,6.03
2022-10-29T07:58:26.811Z,5.53
2022-10-29T08:00:53.443Z,6.32
2022-10-29T08:03:19.807Z,4.82
2022-10-29T08:05:55.169Z,7.72
2022-10-29T08:08:22.979Z,6.32
2022-10-29T08:10:49.227Z,6.10
2022-10-29T08:13:15.462Z,5.68
2022-10-29T08:15:41.787Z,6.15
2022-10-29T08:18:14.080Z,6.53
2022-10-29T08:20:40.338Z,4.93
2022-10-29T08:23:06.568Z,6.30
2022-10-29T08:25:32.828Z,5.93
2022-10-29T08:28:03.036Z,6.03
2022-10-29T08:30:29.954Z,6.18
2022-10-29T08:35:22.750Z,5.63
2022-10-29T08:37:49.018Z,5.32
2022-10-29T08:40:23.926Z,5.80
2022-10-29T08:42:53.443Z,5.70
2022-10-29T08:45:25.887Z,5.82
2022-10-29T08:47:52.096Z,6.43
2022-10-29T08:50:27.654Z,6.93
2022-10-29T08:53:21.877Z,5.68
2022-10-29T08:55:41.024Z,5.55
2022-10-29T08:58:26.146Z,5.70
2022-10-29T09:00:54.268Z,4.85
2022-10-29T09:03:20.582Z,5.13
2022-10-29T09:05:46.799Z,5.55
2022-10-29T09:08:37.912Z,5.20
2022-10-29T09:11:24.414Z,5.70
2022-10-29T09:13:59.467Z,5.78
2022-10-29T09:16:43.479Z,4.75
2022-10-29T09:19:28.476Z,7.20
2022-10-29T09:22:10.266Z,4.88
2022-10-29T09:24:59.518Z,5.18
2022-10-29T09:27:46.065Z,5.57
2022-10-29T09:30:16.958Z,5.32
2022-10-29T09:32:53.757Z,5.13
2022-10-29T09:35:21.744Z,4.75
2022-10-29T09:37:57.033Z,6.18
2022-10-29T09:40:29.599Z,5.53
2022-10-29T09:42:58.082Z,6.05
2022-10-29T09:45:30.180Z,5.75
2022-10-29T09:48:02.507Z,4.45
2022-10-29T09:50:32.924Z,4.45
2022-10-29T09:52:59.653Z,4.50
2022-10-29T09:55:27.618Z,5.32
2022-10-29T09:57:54.908Z,5.18
2022-10-29T10:00:25.784Z,5.40
2022-10-29T10:03:01.920Z,5.72
2022-10-29T10:05:29.738Z,7.47
2022-10-29T10:08:22.145Z,5.00
2022-10-29T10:10:53.001Z,6.13
2022-10-29T10:13:21.886Z,5.95
2022-10-29T10:15:53.838Z,5.65
2022-10-29T10:18:21.582Z,5.18
2022-10-29T10:20:59.784Z,4.75
2022-10-29T10:23:44.449Z,4.85
2022-10-29T10:26:25.895Z,5.10
2022-10-29T10:29:11.895Z,4.95
2022-10-29T10:31:38.924Z,5.95
2022-10-29T10:34:17.334Z,4.68
2022-10-29T10:36:46.335Z,6.03
2022-10-29T10:39:26.555Z,5.88
2022-10-29T10:41:53.522Z,5.15
2022-10-29T10:44:21.539Z,4.38
2022-10-29T10:46:48.921Z,5.10
2022-10-29T10:49:16.844Z,4.32
2022-10-29T10:51:44.851Z,4.75
2022-10-29T10:54:43.642Z,4.60
2022-10-29T10:57:12.679Z,4.20
2022-10-29T10:59:57.115Z,4.00
2022-10-29T11:02:27.084Z,4.13
2022-10-29T11:05:00.866Z,4.45
2022-10-29T11:07:33.179Z,5.07
2022-10-29T11:10:00.484Z,3.90
2022-10-29T11:12:36.796Z,4.55
2022-10-29T11:15:11.946Z,5.47
2022-10-29T11:17:50.046Z,4.75
2022-10-29T11:20:23.118Z,13.50
2022-10-29T11:23:01.276Z,3.88
2022-10-29T11:25:31.883Z,4.43
2022-10-29T11:28:15.128Z,4.72
2022-10-29T11:30:48.564Z,4.55
2022-10-29T11:33:37.448Z,3.33
2022-10-29T11:36:09.359Z,4.00
2022-10-29T11:38:43.829Z,3.75
2022-10-29T11:41:12.934Z,4.32
2022-10-29T11:43:39.452Z,3.85
2022-10-29T11:46:05.684Z,4.63
2022-10-29T11:51:06.597Z,4.43
2022-10-29T11:53:32.836Z,4.95
2022-10-29T11:58:38.005Z,4.78
2022-10-29T12:01:09.599Z,4.13
2022-10-29T12:03:56.278Z,4.35
2022-10-29T12:06:30.208Z,4.50
2022-10-29T12:08:59.484Z,4.03
2022-10-29T12:11:50.223Z,3.95
2022-10-29T12:14:21.076Z,3.65
2022-10-29T12:16:59.247Z,4.60
2022-10-29T12:19:37.390Z,4.57
2022-10-29T12:22:29.565Z,4.28
2022-10-29T12:25:04.513Z,3.65
2022-10-29T12:27:35.880Z,4.25
2022-10-29T12:30:06.288Z,3.95
2022-10-29T12:32:51.387Z,5.00
2022-10-29T12:35:33.778Z,4.07
2022-10-29T12:38:13.187Z,4.47
2022-10-29T12:40:41.787Z,4.03
2022-10-29T12:43:11.396Z,3.58
2022-10-29T12:46:14.420Z,4.07
2022-10-29T12:48:38.797Z,4.05
2022-10-29T12:51:37.544Z,4.15
2022-10-29T12:54:14.154Z,4.18
2022-10-29T12:56:40.583Z,3.78
2022-10-29T12:59:25.257Z,5.13
2022-10-29T13:04:38.292Z,4.90
2022-10-29T13:07:05.811Z,4.40
2022-10-29T13:09:32.077Z,4.07
2022-10-29T13:11:59.756Z,4.03
2022-10-29T13:14:32.035Z,4.53
2022-10-29T13:16:58.695Z,4.45
2022-10-29T13:21:55.048Z,4.93
2022-10-29T13:24:21.546Z,4.68
2022-10-29T13:26:53.338Z,4.70
2022-10-29T13:29:38.384Z,5.20
2022-10-29T13:32:05.735Z,4.80
2022-10-29T13:34:51.692Z,4.78
2022-10-29T13:37:36.571Z,5.05
2022-10-29T13:40:21.555Z,4.65
2022-10-29T13:43:01.071Z,4.90
2022-10-29T13:45:27.815Z,4.90
2022-10-29T13:47:58.847Z,4.80
2022-10-29T13:50:25.371Z,5.22
2022-10-29T13:52:53.335Z,4.95
2022-10-29T13:55:20.500Z,5.47
2022-10-29T13:57:54.328Z,4.97
2022-10-29T14:00:21.358Z,4.53
2022-10-29T14:02:54.479Z,4.97
2022-10-29T14:05:23.365Z,4.30
2022-10-29T14:07:57.148Z,5.13
2022-10-29T14:13:05.789Z,4.15
2022-10-29T14:15:32.150Z,4.82
2022-10-29T14:17:58.393Z,5.10
2022-10-29T14:20:27.266Z,4.30
2022-10-29T14:22:53.973Z,4.35
2022-10-29T14:27:46.929Z,4.32
2022-10-29T14:30:14.272Z,5.45
2022-10-29T14:32:40.698Z,5.40
2022-10-29T14:35:07.172Z,4.88
2022-10-29T14:37:35.949Z,13.80
2022-10-29T14:40:05.228Z,5.60
2022-10-29T14:42:33.194Z,4.97
2022-10-29T14:45:01.438Z,5.22
2022-10-29T14:47:33.474Z,4.90
2022-10-29T14:50:02.655Z,6.30
2022-10-29T14:52:38.201Z,4.63
2022-10-29T14:55:09.080Z,5.60
2022-10-29T14:57:40.204Z,5.25
2022-10-29T15:00:06.752Z,5.93
2022-10-29T15:02:39.244Z,5.75
2022-10-29T15:05:20.392Z,5.35
2022-10-29T15:07:46.613Z,5.13
2022-10-29T15:10:20.373Z,5.03
2022-10-29T15:12:47.111Z,5.80
2022-10-29T15:15:28.035Z,5.10
2022-10-29T15:17:57.451Z,4.72
2022-10-29T15:20:26.087Z,5.30
2022-10-29T15:22:53.830Z,5.38
2022-10-29T15:25:23.911Z,5.70
2022-10-29T15:27:51.458Z,5.43
2022-10-29T15:30:18.962Z,6.03
2022-10-29T15:32:45.470Z,6.70
2022-10-29T15:35:18.048Z,5.70
2022-10-29T15:37:45.983Z,5.22
2022-10-29T15:40:16.827Z,4.93
2022-10-29T15:42:45.220Z,6.55
2022-10-29T15:45:14.664Z,4.70
2022-10-29T15:47:48.387Z,5.45
2022-10-29T15:50:23.692Z,4.97
2022-10-29T15:52:57.253Z,5.07
2022-10-29T15:55:28.653Z,6.18
2022-10-29T15:58:05.868Z,6.70
2022-10-29T16:00:32.749Z,5.07
2022-10-29T16:05:25.504Z,5.70
2022-10-29T16:07:51.923Z,4.97
2022-10-29T16:10:19.529Z,5.15
2022-10-29T16:12:46.171Z,5.22
2022-10-29T16:15:13.247Z,5.55
2022-10-29T16:17:39.557Z,5.47
2022-10-29T16:20:06.322Z,6.03
2022-10-29T16:22:32.567Z,5.10
2022-10-29T16:24:58.990Z,5.22
2022-10-29T16:27:25.283Z,5.63
2022-10-29T16:29:51.671Z,5.10
2022-10-29T16:32:19.231Z,7.07
2022-10-29T16:34:45.528Z,23.25
2022-10-29T16:37:13.459Z,8.10
2022-10-29T16:39:40.058Z,10.27
2022-10-29T16:42:06.355Z,9.68
2022-10-29T16:44:32.608Z,6.15
2022-10-29T16:47:00.552Z,5.90
2022-10-29T16:49:26.805Z,6.85
2022-10-29T16:51:53.049Z,7.68
2022-10-29T16:54:19.280Z,7.30
2022-10-29T16:56:46.325Z,11.57
2022-10-29T16:59:12.576Z,12.88
2022-10-29T17:01:38.840Z,7.90
2022-10-29T17:04:05.259Z,11.30
2022-10-29T17:06:31.590Z,12.82
2022-10-29T17:08:57.837Z,10.35
2022-10-29T17:11:24.114Z,8.70
2022-10-29T17:13:50.444Z,7.97
2022-10-29T17:16:18.858Z,8.73
2022-10-29T17:18:50.465Z,7.45
2022-10-29T17:21:16.752Z,7.88
2022-10-29T17:23:43.176Z,7.65
2022-10-29T17:26:09.474Z,7.28
2022-10-29T17:28:38.113Z,7.80
2022-10-29T17:31:05.060Z,6.03
2022-10-29T17:36:04.684Z,6.40
2022-10-29T17:38:31.053Z,7.80
2022-10-29T17:40:57.340Z,7.88
2022-10-29T17:43:23.668Z,7.40
2022-10-29T17:45:50.669Z,7.65
2022-10-29T17:48:19.717Z,6.75
2022-10-29T17:50:57.803Z,8.00
2022-10-29T17:53:24.431Z,7.43
2022-10-29T17:55:51.123Z,7.07
2022-10-29T17:58:18.264Z,8.30
2022-10-29T18:00:44.842Z,8.02
2022-10-29T18:03:11.068Z,8.35
2022-10-29T18:05:37.499Z,8.27
2022-10-29T18:08:03.805Z,10.95
2022-10-29T18:10:31.799Z,11.70
2022-10-29T18:12:58.113Z,9.45
2022-10-29T18:15:24.388Z,11.27
2022-10-29T18:17:50.622Z,11.63
2022-10-29T18:20:17.148Z,10.63
2022-10-29T18:22:44.120Z,12.38
2022-10-29T18:27:36.628Z,12.98
2022-10-29T18:30:03.503Z,12.68
2022-10-29T18:34:56.846Z,14.23
2022-10-29T18:37:23.128Z,14.20
2022-10-29T18:39:49.401Z,11.13
2022-10-29T18:42:15.631Z,14.98
2022-10-29T18:44:41.909Z,12.13
2022-10-29T18:47:08.177Z,12.98
2022-10-29T18:49:34.464Z,14.93
2022-10-29T18:52:00.722Z,13.15
2022-10-29T18:54:27.056Z,18.77
2022-10-29T18:56:53.376Z,15.00
2022-10-29T18:59:19.754Z,14.48
2022-10-29T19:01:46.092Z,12.85
2022-10-29T19:04:13.824Z,11.73
2022-10-29T19:06:40.441Z,11.23
2022-10-29T19:09:07.960Z,11.65
2022-10-29T19:11:34.526Z,9.93
2022-10-29T19:14:02.130Z,19.73
2022-10-29T19:16:28.923Z,31.92
2022-10-29T19:18:56.171Z,15.50
2022-10-29T19:21:22.576Z,22.65
2022-10-29T19:23:53.091Z,13.07
2022-10-29T19:26:19.364Z,11.15
2022-10-29T19:28:46.302Z,9.38
2022-10-29T19:33:39.056Z,7.50
2022-10-29T19:36:06.541Z,9.07
2022-10-29T19:38:32.998Z,11.20
2022-10-29T19:40:59.390Z,8.68
2022-10-29T19:43:26.148Z,12.60
2022-10-29T19:45:52.839Z,14.60
2022-10-29T19:48:19.145Z,20.98
2022-10-29T19:50:45.784Z,38.65
2022-10-29T19:53:12.768Z,38.38
2022-10-29T19:55:39.926Z,52.22
2022-10-29T19:58:06.169Z,50.35
2022-10-29T20:00:32.392Z,34.33
2022-10-29T20:02:59.111Z,28.05
2022-10-29T20:05:25.830Z,38.78
2022-10-29T20:07:52.123Z,21.30
2022-10-29T20:10:18.662Z,15.25
2022-10-29T20:12:44.932Z,12.95
2022-10-29T20:15:12.107Z,11.25
2022-10-29T20:17:38.562Z,10.85
2022-10-29T20:20:05.644Z,10.73
2022-10-29T20:22:31.894Z,9.85
2022-10-29T20:24:58.355Z,10.00
2022-10-29T20:27:24.572Z,8.90
2022-10-29T20:29:50.784Z,8.65
2022-10-29T20:32:17.231Z,9.35
2022-10-29T20:34:43.512Z,9.25
2022-10-29T20:37:09.736Z,7.82
2022-10-29T20:39:35.966Z,7.95
2022-10-29T20:42:02.225Z,7.63
2022-10-29T20:44:28.443Z,7.72
2022-10-29T20:46:54.685Z,7.50
2022-10-29T20:49:20.903Z,7.22
2022-10-29T20:51:47.121Z,6.80
2022-10-29T20:54:13.330Z,7.97
2022-10-29T20:56:39.588Z,8.15
2022-10-29T20:59:05.860Z,8.40
2022-10-29T21:01:32.150Z,9.05
2022-10-29T21:03:58.618Z,8.32
2022-10-29T21:06:24.940Z,8.88
2022-10-29T21:08:51.986Z,8.45
2022-10-29T21:11:18.739Z,8.65
2022-10-29T21:13:45.358Z,7.28
2022-10-29T21:16:24.696Z,8.10
2022-10-29T21:18:52.051Z,8.43
2022-10-29T21:21:18.862Z,7.68
2022-10-29T21:23:45.288Z,8.13
2022-10-29T21:26:12.676Z,7.63
2022-10-29T21:28:38.947Z,8.50
2022-10-29T21:31:05.464Z,9.00
2022-10-29T21:33:31.695Z,14.13
2022-10-29T21:35:58.275Z,12.52
2022-10-29T21:38:25.247Z,11.55
2022-10-29T21:40:51.974Z,34.85
2022-10-29T21:43:18.242Z,35.40
2022-10-29T21:45:45.220Z,13.38
2022-10-29T21:50:37.822Z,10.30
2022-10-29T21:53:04.941Z,10.23
2022-10-29T21:55:31.546Z,9.30
2022-10-29T21:57:58.141Z,7.82
2022-10-29T22:02:50.969Z,8.73
2022-10-29T22:05:17.332Z,9.18
2022-10-29T22:07:43.856Z,8.40
2022-10-29T22:10:10.239Z,7.93
2022-10-29T22:12:36.545Z,7.80
2022-10-29T22:15:03.962Z,8.45
2022-10-29T22:17:30.735Z,8.13
2022-10-29T22:19:57.306Z,8.30
2022-10-29T22:22:23.634Z,8.50
2022-10-29T22:24:50.129Z,9.48
2022-10-29T22:27:16.382Z,8.57
2022-10-29T22:29:42.629Z,11.32
2022-10-29T22:32:08.897Z,8.45
2022-10-29T22:34:35.198Z,10.07
2022-10-29T22:37:01.422Z,9.20
2022-10-29T22:39:27.692Z,10.45
2022-10-29T22:41:53.919Z,11.88
2022-10-29T22:44:20.161Z,12.68
2022-10-29T22:46:46.376Z,10.23
2022-10-29T22:49:12.635Z,10.55
2022-10-29T22:51:39.131Z,11.20
2022-10-29T22:54:05.488Z,11.07
2022-10-29T22:56:33.161Z,11.90
2022-10-29T22:58:59.470Z,12.48
2022-10-29T23:01:27.108Z,12.60
2022-10-29T23:03:53.639Z,12.13
2022-10-29T23:06:21.169Z,11.75
2022-10-29T23:08:47.879Z,11.35
2022-10-29T23:11:19.078Z,11.40
2022-10-29T23:13:46.620Z,11.75
2022-10-29T23:16:13.029Z,11.80
2022-10-29T23:18:39.325Z,12.25
2022-10-29T23:21:06.143Z,11.52
2022-10-29T23:23:32.819Z,11.52
2022-10-29T23:26:03.655Z,10.95
2022-10-29T23:28:31.086Z,11.63
2022-10-29T23:30:57.882Z,12.55
2022-10-29T23:33:24.305Z,11.55
2022-10-29T23:35:51.108Z,12.90
2022-10-29T23:38:17.671Z,11.65
2022-10-29T23:40:44.512Z,11.35
2022-10-29T23:43:10.866Z,11.45
2022-10-29T23:45:37.275Z,12.18
2022-10-29T23:48:03.645Z,10.85
2022-10-29T23:50:29.927Z,11.98
2022-10-29T23:52:56.525Z,11.45
2022-10-29T23:55:23.047Z,10.63
2022-10-29T23:57:49.300Z,11.75
